Currently 84°F in San Diego (City Heights), California, USA
84°F
85°F / 61°F
4 mph W
0.00"
Monday, September 25, 2017 1:42 PM PDT

San Diego (City Heights), California Weather Summary
Last 36 Hours

Temperature Winds Hourly Humidity Dewpoint
Time Report Norm Report Norm Max Gusts Precip. Rpt. Norm Rpt. Norm Pressure
1Mon 01:42 PM  84.2°F  82°F  4 mph W  4 mph  10 mph  0.00"  18%  47%  35°F  59°F  N/A
Mon 01:00 PM  84.5°F  81°F  7 mph SW  4 mph  12 mph  0.00"  15%  49%  30°F  59°F  N/A
2Mon 12:34 PM  84.6°F  81°F  3 mph W  4 mph  11 mph  ----  17%  49%  33°F  60°F  N/A
Mon 12:00 PM  83.2°F  81°F  4 mph SW  4 mph  9 mph  0.00"  18%  50%  33°F  60°F  N/A
Mon 11:00 AM  81.7°F  80°F  4 mph S  3 mph  5 mph  0.00"  21%  51%  36°F  59°F  N/A
Mon 10:00 AM  77.9°F  77°F  calm  2 mph  4 mph  0.00"  24%  56%  36°F  60°F  N/A
Mon 09:00 AM  74.5°F  73°F  1 mph SW  1 mph  5 mph  0.00"  28%  65%  38°F  60°F  N/A
Mon 08:00 AM  66.9°F  69°F  1 mph NE  1 mph  5 mph  0.00"  37%  74%  39°F  60°F  N/A
Mon 07:00 AM  62.8°F  66°F  2 mph S  1 mph  6 mph  0.00"  41%  79%  38°F  59°F  N/A
Mon 06:00 AM  62.1°F  66°F  4 mph SW  calm  6 mph  0.00"  45%  80%  39°F  59°F  N/A
Mon 05:00 AM  62.4°F  66°F  3 mph E  calm  4 mph  0.00"  45%  79%  40°F  59°F  N/A
3Mon 04:29 AM  61.0°F  67°F  2 mph S  1 mph  3 mph  ----  49%  79%  41°F  59°F  N/A
Mon 04:00 AM  62.1°F  67°F  1 mph NE  1 mph  4 mph  0.00"  48%  78%  41°F  60°F  N/A
Mon 03:00 AM  61.5°F  67°F  1 mph E  calm  2 mph  0.00"  55%  78%  45°F  60°F  N/A
Mon 02:00 AM  62.5°F  67°F  calm  1 mph  3 mph  0.00"  55%  78%  46°F  60°F  N/A
Mon 01:00 AM  64.8°F  68°F  1 mph N  calm  3 mph  0.00"  53%  78%  47°F  61°F  N/A
Mon 12:00 AM  64.6°F  68°F  calm  1 mph  3 mph  0.00"  67%  77%  53°F  61°F  N/A
Sun 11:00 PM  66.4°F  69°F  calm  calm  7 mph  0.00"  68%  75%  55°F  61°F  N/A
Sun 10:00 PM  68.5°F  70°F  4 mph SW  1 mph  8 mph  0.00"  67%  73%  57°F  60°F  N/A
Sun 09:00 PM  68.9°F  71°F  calm  1 mph  4 mph  0.00"  64%  71%  56°F  60°F  N/A
Sun 08:00 PM  70.4°F  72°F  calm  1 mph  6 mph  0.00"  59%  67%  55°F  60°F  N/A
Sun 07:00 PM  72.8°F  74°F  calm  2 mph  8 mph  0.00"  51%  63%  53°F  60°F  N/A
Sun 06:00 PM  76.1°F  76°F  4 mph W  3 mph  10 mph  0.00"  42%  56%  50°F  59°F  N/A
Sun 05:00 PM  78.4°F  79°F  7 mph W  3 mph  10 mph  0.00"  40%  52%  51°F  59°F  N/A
Sun 04:00 PM  80.9°F  80°F  3 mph W  4 mph  12 mph  0.00"  35%  50%  49°F  59°F  N/A
Sun 03:00 PM  81.7°F  81°F  4 mph SW  4 mph  14 mph  0.00"  35%  49%  50°F  59°F  N/A
Sun 02:00 PM  82.0°F  81°F  6 mph W  4 mph  12 mph  0.00"  23%  49%  39°F  60°F  N/A
Sun 01:00 PM  81.2°F  81°F  3 mph W  4 mph  10 mph  0.00"  33%  50%  48°F  60°F  N/A
Sun 12:00 PM  80.0°F  80°F  4 mph W  4 mph  9 mph  0.00"  37%  52%  50°F  61°F  N/A
Sun 11:00 AM  75.8°F  79°F  calm  3 mph  4 mph  0.00"  42%  53%  50°F  60°F  N/A
Sun 10:00 AM  72.5°F  76°F  1 mph NW  2 mph  3 mph  0.00"  51%  59%  53°F  60°F  N/A
Sun 09:00 AM  68.2°F  72°F  2 mph NE  2 mph  5 mph  0.00"  61%  68%  54°F  61°F  N/A
Sun 08:00 AM  62.8°F  69°F  3 mph SW  1 mph  5 mph  0.00"  73%  75%  54°F  61°F  N/A
Sun 07:00 AM  58.4°F  66°F  2 mph N  1 mph  none  0.00"  82%  80%  53°F  60°F  N/A
Sun 06:00 AM  59.1°F  66°F  calm  calm  4 mph  0.00"  82%  80%  53°F  60°F  N/A
Sun 05:00 AM  59.2°F  66°F  calm  calm  3 mph  0.00"  82%  80%  53°F  60°F  N/A
Sun 04:00 AM  60.3°F  67°F  calm  calm  4 mph  0.00"  81%  79%  54°F  60°F  N/A
Sun 03:00 AM  60.6°F  67°F  calm  1 mph  3 mph  0.00"  81%  79%  55°F  60°F  N/A
Sun 02:00 AM  60.7°F  68°F  calm  1 mph  none  0.00"  82%  79%  55°F  60°F  N/A

  1. Current weather data. No green row appears if the current weather data is also the high or low for the current day.
  2. High temperature for the current day.
  3. Low temperature for the current day.

The San Diego (City Height), California weather pages are a service of WeatherCurrents. City Heights is a San Diego community, located east of Balboa Park, near Interstate 15
Copyright ©Mon Sep 25 13:42:49 PDT 2017  WeatherCurrents. All rights reserved. - Submit questions and comments - Privacy Policy

This page automatically refreshes every 10 minutes.